sensor_id;sensor_type;location;lat;lon;timestamp;pressure;altitude;pressure_sealevel;temperature;humidity
69239;BME280;56349;51.816;-0.026;2022-11-09T00:00:45;99349.88;;;23.42;38.48
69239;BME280;56349;51.816;-0.026;2022-11-09T00:03:18;99349.13;;;23.37;38.56
69239;BME280;56349;51.816;-0.026;2022-11-09T00:05:37;99347.09;;;23.55;38.69
69239;BME280;56349;51.816;-0.026;2022-11-09T00:08:04;99350.87;;;23.47;38.79
69239;BME280;56349;51.816;-0.026;2022-11-09T00:10:27;99348.83;;;23.58;38.94
69239;BME280;56349;51.816;-0.026;2022-11-09T00:12:55;99348.77;;;23.26;39.10
69239;BME280;56349;51.816;-0.026;2022-11-09T00:15:19;99346.88;;;23.39;39.23
69239;BME280;56349;51.816;-0.026;2022-11-09T00:17:49;99349.10;;;23.11;39.33
69239;BME280;56349;51.816;-0.026;2022-11-09T00:20:11;99349.29;;;23.06;39.41
69239;BME280;56349;51.816;-0.026;2022-11-09T00:22:36;99355.89;;;23.01;39.49
69239;BME280;56349;51.816;-0.026;2022-11-09T00:25:02;99352.31;;;23.14;39.61
69239;BME280;56349;51.816;-0.026;2022-11-09T00:27:27;99355.52;;;23.07;39.70
69239;BME280;56349;51.816;-0.026;2022-11-09T00:29:53;99356.05;;;22.80;39.77
69239;BME280;56349;51.816;-0.026;2022-11-09T00:32:19;99357.00;;;22.97;39.85
69239;BME280;56349;51.816;-0.026;2022-11-09T00:34:45;99358.76;;;22.67;39.96
69239;BME280;56349;51.816;-0.026;2022-11-09T00:37:10;99362.39;;;22.82;40.08
69239;BME280;56349;51.816;-0.026;2022-11-09T00:39:36;99358.61;;;22.76;40.16
69239;BME280;56349;51.816;-0.026;2022-11-09T00:42:02;99357.55;;;22.70;40.25
69239;BME280;56349;51.816;-0.026;2022-11-09T00:44:28;99364.06;;;22.66;40.30
69239;BME280;56349;51.816;-0.026;2022-11-09T00:46:54;99359.00;;;22.61;40.38
69239;BME280;56349;51.816;-0.026;2022-11-09T00:49:19;99363.15;;;22.57;40.44
69239;BME280;56349;51.816;-0.026;2022-11-09T00:51:45;99364.64;;;22.53;40.51
69239;BME280;56349;51.816;-0.026;2022-11-09T00:54:11;99364.17;;;22.48;40.57
69239;BME280;56349;51.816;-0.026;2022-11-09T00:56:37;99364.32;;;22.71;40.64
69239;BME280;56349;51.816;-0.026;2022-11-09T00:59:03;99367.93;;;22.66;40.71
69239;BME280;56349;51.816;-0.026;2022-11-09T01:01:29;99370.20;;;22.36;40.76
69239;BME280;56349;51.816;-0.026;2022-11-09T01:03:54;99371.76;;;22.33;40.79
69239;BME280;56349;51.816;-0.026;2022-11-09T01:06:24;99375.62;;;22.30;40.85
69239;BME280;56349;51.816;-0.026;2022-11-09T01:08:47;99372.62;;;22.30;40.86
69239;BME280;56349;51.816;-0.026;2022-11-09T01:11:12;99363.83;;;22.27;40.89
69239;BME280;56349;51.816;-0.026;2022-11-09T01:13:38;99364.75;;;22.24;40.95
69239;BME280;56349;51.816;-0.026;2022-11-09T01:16:09;99368.08;;;22.25;40.95
69239;BME280;56349;51.816;-0.026;2022-11-09T01:18:36;99371.46;;;22.50;40.96
69239;BME280;56349;51.816;-0.026;2022-11-09T01:21:08;99375.04;;;22.20;40.99
69239;BME280;56349;51.816;-0.026;2022-11-09T01:23:20;99382.08;;;21.95;41.06
69239;BME280;56349;51.816;-0.026;2022-11-09T01:25:46;99385.59;;;22.21;40.99
69239;BME280;56349;51.816;-0.026;2022-11-09T01:28:11;99386.69;;;22.16;41.04
69239;BME280;56349;51.816;-0.026;2022-11-09T01:30:44;99389.88;;;22.60;41.12
69239;BME280;56349;51.816;-0.026;2022-11-09T01:33:03;99395.77;;;22.33;41.19
69239;BME280;56349;51.816;-0.026;2022-11-09T01:35:37;99399.15;;;22.30;41.23
69239;BME280;56349;51.816;-0.026;2022-11-09T01:37:54;99394.97;;;22.01;41.26
69239;BME280;56349;51.816;-0.026;2022-11-09T01:40:29;99395.41;;;22.47;41.29
69239;BME280;56349;51.816;-0.026;2022-11-09T01:42:45;99396.35;;;21.98;41.29
69239;BME280;56349;51.816;-0.026;2022-11-09T01:47:35;99400.74;;;22.45;41.31
69239;BME280;56349;51.816;-0.026;2022-11-09T01:50:01;99401.82;;;22.19;41.35
69239;BME280;56349;51.816;-0.026;2022-11-09T01:52:29;99400.44;;;21.89;41.39
69239;BME280;56349;51.816;-0.026;2022-11-09T01:54:56;99402.05;;;22.12;41.44
69239;BME280;56349;51.816;-0.026;2022-11-09T01:57:19;99404.32;;;22.07;41.51
69239;BME280;56349;51.816;-0.026;2022-11-09T01:59:47;99407.23;;;21.76;41.56
69239;BME280;56349;51.816;-0.026;2022-11-09T02:02:08;99407.37;;;21.72;41.61
69239;BME280;56349;51.816;-0.026;2022-11-09T02:04:37;99409.19;;;22.19;41.63
69239;BME280;56349;51.816;-0.026;2022-11-09T02:06:59;99410.30;;;22.18;41.66
69239;BME280;56349;51.816;-0.026;2022-11-09T02:09:32;99409.08;;;22.17;41.66
69239;BME280;56349;51.816;-0.026;2022-11-09T02:11:50;99407.65;;;22.13;41.70
69239;BME280;56349;51.816;-0.026;2022-11-09T02:14:18;99415.20;;;22.11;41.74
69239;BME280;56349;51.816;-0.026;2022-11-09T02:16:42;99416.33;;;21.86;41.77
69239;BME280;56349;51.816;-0.026;2022-11-09T02:19:06;99417.68;;;22.04;41.80
69239;BME280;56349;51.816;-0.026;2022-11-09T02:21:32;99415.75;;;22.03;41.82
69239;BME280;56349;51.816;-0.026;2022-11-09T02:23:59;99413.54;;;22.00;41.86
69239;BME280;56349;51.816;-0.026;2022-11-09T02:26:31;99408.85;;;21.77;41.86
69239;BME280;56349;51.816;-0.026;2022-11-09T02:28:51;99407.33;;;21.98;41.89
69239;BME280;56349;51.816;-0.026;2022-11-09T02:31:16;99407.83;;;21.96;41.90
69239;BME280;56349;51.816;-0.026;2022-11-09T02:33:43;99406.32;;;21.95;41.92
69239;BME280;56349;51.816;-0.026;2022-11-09T02:36:07;99414.16;;;21.95;41.92
69239;BME280;56349;51.816;-0.026;2022-11-09T02:38:32;99418.54;;;21.94;41.93
69239;BME280;56349;51.816;-0.026;2022-11-09T02:40:58;99416.40;;;21.93;41.94
69239;BME280;56349;51.816;-0.026;2022-11-09T02:43:23;99417.93;;;21.91;41.95
69239;BME280;56349;51.816;-0.026;2022-11-09T02:45:49;99420.86;;;21.89;41.97
69239;BME280;56349;51.816;-0.026;2022-11-09T02:48:15;99424.55;;;21.88;41.97
69239;BME280;56349;51.816;-0.026;2022-11-09T02:50:40;99425.49;;;21.87;41.98
69239;BME280;56349;51.816;-0.026;2022-11-09T02:53:06;99426.86;;;21.83;42.01
69239;BME280;56349;51.816;-0.026;2022-11-09T02:55:32;99427.26;;;21.80;42.06
69239;BME280;56349;51.816;-0.026;2022-11-09T02:57:58;99435.32;;;21.80;42.06
69239;BME280;56349;51.816;-0.026;2022-11-09T03:00:23;99443.49;;;21.81;42.04
69239;BME280;56349;51.816;-0.026;2022-11-09T03:02:49;99443.97;;;21.81;42.02
69239;BME280;56349;51.816;-0.026;2022-11-09T03:05:14;99445.16;;;21.77;42.06
69239;BME280;56349;51.816;-0.026;2022-11-09T03:07:40;99441.69;;;21.95;42.09
69239;BME280;56349;51.816;-0.026;2022-11-09T03:10:07;99446.00;;;21.70;42.12
69239;BME280;56349;51.816;-0.026;2022-11-09T03:12:31;99442.45;;;21.69;42.14
69239;BME280;56349;51.816;-0.026;2022-11-09T03:14:58;99447.72;;;21.92;42.11
69239;BME280;56349;51.816;-0.026;2022-11-09T03:17:22;99445.51;;;21.68;42.13
69239;BME280;56349;51.816;-0.026;2022-11-09T03:19:48;99450.92;;;21.69;42.11
69239;BME280;56349;51.816;-0.026;2022-11-09T03:22:16;99449.59;;;21.90;42.10
69239;BME280;56349;51.816;-0.026;2022-11-09T03:24:42;99447.73;;;21.67;42.12
69239;BME280;56349;51.816;-0.026;2022-11-09T03:27:07;99447.24;;;21.68;42.10
69239;BME280;56349;51.816;-0.026;2022-11-09T03:29:33;99451.19;;;21.47;42.07
69239;BME280;56349;51.816;-0.026;2022-11-09T03:31:57;99450.58;;;21.70;42.04
69239;BME280;56349;51.816;-0.026;2022-11-09T03:34:30;99450.57;;;21.69;42.03
69239;BME280;56349;51.816;-0.026;2022-11-09T03:36:51;99452.72;;;21.70;42.02
69239;BME280;56349;51.816;-0.026;2022-11-09T03:39:20;99455.00;;;21.71;42.00
69239;BME280;56349;51.816;-0.026;2022-11-09T03:41:42;99453.24;;;21.67;42.02
69239;BME280;56349;51.816;-0.026;2022-11-09T03:44:06;99452.25;;;21.64;42.06
69239;BME280;56349;51.816;-0.026;2022-11-09T03:46:31;99451.49;;;21.61;42.09
69239;BME280;56349;51.816;-0.026;2022-11-09T03:48:58;99449.58;;;21.57;42.13
69239;BME280;56349;51.816;-0.026;2022-11-09T03:51:32;99449.00;;;21.56;42.13
69239;BME280;56349;51.816;-0.026;2022-11-09T03:53:56;99447.68;;;21.61;42.07
69239;BME280;56349;51.816;-0.026;2022-11-09T03:56:15;99452.64;;;21.64;42.01
69239;BME280;56349;51.816;-0.026;2022-11-09T03:58:40;99459.41;;;21.62;42.02
69239;BME280;56349;51.816;-0.026;2022-11-09T04:01:16;99464.46;;;21.57;42.06
69239;BME280;56349;51.816;-0.026;2022-11-09T04:03:47;99469.77;;;21.56;42.07
69239;BME280;56349;51.816;-0.026;2022-11-09T04:06:04;99473.33;;;21.52;42.11
69239;BME280;56349;51.816;-0.026;2022-11-09T04:08:24;99481.95;;;21.73;42.10
69239;BME280;56349;51.816;-0.026;2022-11-09T04:10:54;99486.39;;;21.48;42.13
69239;BME280;56349;51.816;-0.026;2022-11-09T04:13:14;99485.85;;;21.48;42.13
69239;BME280;56349;51.816;-0.026;2022-11-09T04:15:40;99490.42;;;21.45;42.15
69239;BME280;56349;51.816;-0.026;2022-11-09T04:18:05;99492.31;;;21.43;42.17
69239;BME280;56349;51.816;-0.026;2022-11-09T04:20:36;99493.84;;;21.60;42.22
69239;BME280;56349;51.816;-0.026;2022-11-09T04:23:08;99493.20;;;21.39;42.23
69239;BME280;56349;51.816;-0.026;2022-11-09T04:25:23;99496.14;;;21.41;42.18
69239;BME280;56349;51.816;-0.026;2022-11-09T04:30:17;99504.71;;;21.45;42.15
69239;BME280;56349;51.816;-0.026;2022-11-09T04:32:39;99502.66;;;21.46;42.19
69239;BME280;56349;51.816;-0.026;2022-11-09T04:35:06;99498.12;;;21.72;42.22
69239;BME280;56349;51.816;-0.026;2022-11-09T04:37:31;99493.59;;;21.53;42.29
69239;BME280;56349;51.816;-0.026;2022-11-09T04:39:57;99486.84;;;21.63;42.27
69239;BME280;56349;51.816;-0.026;2022-11-09T04:42:23;99487.69;;;21.56;42.17
69239;BME280;56349;51.816;-0.026;2022-11-09T04:44:49;99488.14;;;21.96;42.01
69239;BME280;56349;51.816;-0.026;2022-11-09T04:47:15;99488.89;;;22.13;41.76
69239;BME280;56349;51.816;-0.026;2022-11-09T04:49:46;99491.62;;;22.04;41.51
69239;BME280;56349;51.816;-0.026;2022-11-09T04:52:06;99490.76;;;22.14;41.30
69239;BME280;56349;51.816;-0.026;2022-11-09T04:54:32;99488.69;;;21.97;41.08
69239;BME280;56349;51.816;-0.026;2022-11-09T04:56:58;99485.55;;;22.28;40.91
69239;BME280;56349;51.816;-0.026;2022-11-09T04:59:23;99485.55;;;22.30;40.78
69239;BME280;56349;51.816;-0.026;2022-11-09T05:01:49;99484.55;;;22.29;40.69
69239;BME280;56349;51.816;-0.026;2022-11-09T05:04:15;99489.10;;;22.27;40.64
69239;BME280;56349;51.816;-0.026;2022-11-09T05:06:42;99486.69;;;22.44;40.68
69239;BME280;56349;51.816;-0.026;2022-11-09T05:09:07;99487.96;;;22.19;40.74
69239;BME280;56349;51.816;-0.026;2022-11-09T05:11:34;99492.36;;;22.15;40.90
69239;BME280;56349;51.816;-0.026;2022-11-09T05:14:02;99494.55;;;21.90;41.01
69239;BME280;56349;51.816;-0.026;2022-11-09T05:16:27;99493.40;;;22.16;41.18
69239;BME280;56349;51.816;-0.026;2022-11-09T05:19:01;99499.04;;;22.33;41.42
69239;BME280;56349;51.816;-0.026;2022-11-09T05:21:17;99498.98;;;22.29;41.66
69239;BME280;56349;51.816;-0.026;2022-11-09T05:23:42;99501.38;;;21.79;41.89
69239;BME280;56349;51.816;-0.026;2022-11-09T05:26:08;99501.08;;;22.26;42.09
69239;BME280;56349;51.816;-0.026;2022-11-09T05:28:37;99504.06;;;22.23;42.33
69239;BME280;56349;51.816;-0.026;2022-11-09T05:30:58;99506.48;;;22.25;42.52
69239;BME280;56349;51.816;-0.026;2022-11-09T05:33:25;99508.02;;;22.27;42.67
69239;BME280;56349;51.816;-0.026;2022-11-09T05:35:54;99508.43;;;22.08;42.80
69239;BME280;56349;51.816;-0.026;2022-11-09T05:38:21;99509.51;;;22.10;42.95
69239;BME280;56349;51.816;-0.026;2022-11-09T05:40:41;99513.18;;;22.37;43.05
69239;BME280;56349;51.816;-0.026;2022-11-09T05:43:09;99513.67;;;22.17;43.17
69239;BME280;56349;51.816;-0.026;2022-11-09T05:45:32;99513.80;;;22.43;43.25
69239;BME280;56349;51.816;-0.026;2022-11-09T05:47:58;99512.43;;;22.44;43.35
69239;BME280;56349;51.816;-0.026;2022-11-09T05:50:24;99510.57;;;22.46;43.47
69239;BME280;56349;51.816;-0.026;2022-11-09T05:52:50;99510.89;;;22.50;43.49
69239;BME280;56349;51.816;-0.026;2022-11-09T05:55:16;99512.57;;;22.06;43.52
69239;BME280;56349;51.816;-0.026;2022-11-09T05:57:41;99518.80;;;22.37;43.54
69239;BME280;56349;51.816;-0.026;2022-11-09T06:00:08;99522.22;;;22.39;43.58
69239;BME280;56349;51.816;-0.026;2022-11-09T06:02:33;99520.43;;;22.15;43.61
69239;BME280;56349;51.816;-0.026;2022-11-09T06:04:59;99525.04;;;22.18;43.62
69239;BME280;56349;51.816;-0.026;2022-11-09T06:07:25;99519.26;;;22.21;43.62
69239;BME280;56349;51.816;-0.026;2022-11-09T06:09:51;99517.10;;;22.75;43.61
69239;BME280;56349;51.816;-0.026;2022-11-09T06:12:17;99520.67;;;22.29;43.60
69239;BME280;56349;51.816;-0.026;2022-11-09T06:14:43;99522.85;;;22.59;43.56
69239;BME280;56349;51.816;-0.026;2022-11-09T06:17:09;99522.81;;;22.35;43.55
69239;BME280;56349;51.816;-0.026;2022-11-09T06:19:34;99528.78;;;22.37;43.53
69239;BME280;56349;51.816;-0.026;2022-11-09T06:22:00;99530.10;;;22.41;43.48
69239;BME280;56349;51.816;-0.026;2022-11-09T06:24:25;99530.12;;;22.46;43.39
69239;BME280;56349;51.816;-0.026;2022-11-09T06:26:51;99528.68;;;22.25;43.35
69239;BME280;56349;51.816;-0.026;2022-11-09T06:29:17;99533.09;;;22.78;43.25
69239;BME280;56349;51.816;-0.026;2022-11-09T06:31:43;99530.56;;;22.53;43.17
69239;BME280;56349;51.816;-0.026;2022-11-09T06:34:09;99538.77;;;22.55;43.09
69239;BME280;56349;51.816;-0.026;2022-11-09T06:36:35;99544.91;;;22.55;43.01
69239;BME280;56349;51.816;-0.026;2022-11-09T06:39:01;99553.86;;;22.57;42.90
69239;BME280;56349;51.816;-0.026;2022-11-09T06:41:27;99556.57;;;22.57;42.83
69239;BME280;56349;51.816;-0.026;2022-11-09T06:43:53;99557.98;;;22.55;42.75
69239;BME280;56349;51.816;-0.026;2022-11-09T06:46:19;99563.40;;;22.84;42.65
69239;BME280;56349;51.816;-0.026;2022-11-09T06:48:44;99566.26;;;22.56;42.58
69239;BME280;56349;51.816;-0.026;2022-11-09T06:51:10;99567.26;;;22.57;42.50
69239;BME280;56349;51.816;-0.026;2022-11-09T06:53:36;99571.15;;;22.57;42.40
69239;BME280;56349;51.816;-0.026;2022-11-09T06:56:04;99578.37;;;22.58;42.32
69239;BME280;56349;51.816;-0.026;2022-11-09T06:58:29;99583.34;;;22.57;42.26
69239;BME280;56349;51.816;-0.026;2022-11-09T07:00:55;99580.15;;;22.57;42.19
69239;BME280;56349;51.816;-0.026;2022-11-09T07:03:21;99580.40;;;22.55;42.14
69239;BME280;56349;51.816;-0.026;2022-11-09T07:05:46;99592.10;;;22.54;42.09
69239;BME280;56349;51.816;-0.026;2022-11-09T07:08:12;99596.49;;;22.78;42.07
69239;BME280;56349;51.816;-0.026;2022-11-09T07:10:37;99602.15;;;22.54;41.97
69239;BME280;56349;51.816;-0.026;2022-11-09T07:13:09;99602.65;;;22.53;41.92
69239;BME280;56349;51.816;-0.026;2022-11-09T07:15:38;99608.87;;;22.52;41.87
69239;BME280;56349;51.816;-0.026;2022-11-09T07:20:18;99619.26;;;22.60;41.67
69239;BME280;56349;51.816;-0.026;2022-11-09T07:22:48;99622.53;;;22.56;41.65
69239;BME280;56349;51.816;-0.026;2022-11-09T07:25:11;99625.74;;;22.76;41.68
69239;BME280;56349;51.816;-0.026;2022-11-09T07:27:34;99627.40;;;22.45;41.68
69239;BME280;56349;51.816;-0.026;2022-11-09T07:30:00;99630.06;;;22.67;41.69
69239;BME280;56349;51.816;-0.026;2022-11-09T07:32:26;99636.73;;;22.36;41.71
69239;BME280;56349;51.816;-0.026;2022-11-09T07:34:51;99639.70;;;22.31;41.73
69239;BME280;56349;51.816;-0.026;2022-11-09T07:37:17;99651.75;;;22.29;41.73
69239;BME280;56349;51.816;-0.026;2022-11-09T07:39:43;99657.52;;;22.74;41.72
69239;BME280;56349;51.816;-0.026;2022-11-09T07:42:09;99664.54;;;22.49;41.72
69239;BME280;56349;51.816;-0.026;2022-11-09T07:44:35;99670.37;;;22.47;41.70
69239;BME280;56349;51.816;-0.026;2022-11-09T07:47:01;99673.57;;;22.67;41.70
69239;BME280;56349;51.816;-0.026;2022-11-09T07:49:26;99677.19;;;22.15;41.72
69239;BME280;56349;51.816;-0.026;2022-11-09T07:51:52;99681.49;;;22.61;41.72
69239;BME280;56349;51.816;-0.026;2022-11-09T07:54:18;99685.95;;;22.10;41.72
69239;BME280;56349;51.816;-0.026;2022-11-09T07:56:43;99693.87;;;22.32;41.74
69239;BME280;56349;51.816;-0.026;2022-11-09T07:59:20;99695.03;;;22.51;41.76
69239;BME280;56349;51.816;-0.026;2022-11-09T08:01:35;99695.13;;;22.02;41.75
69239;BME280;56349;51.816;-0.026;2022-11-09T08:04:00;99696.30;;;22.04;41.70
69239;BME280;56349;51.816;-0.026;2022-11-09T08:06:26;99702.99;;;22.50;41.63
69239;BME280;56349;51.816;-0.026;2022-11-09T08:08:54;99707.30;;;21.95;41.66
69239;BME280;56349;51.816;-0.026;2022-11-09T08:11:17;99710.88;;;22.19;41.74
69239;BME280;56349;51.816;-0.026;2022-11-09T08:13:43;99718.27;;;22.17;41.85
69239;BME280;56349;51.816;-0.026;2022-11-09T08:16:09;99723.78;;;22.35;42.16
69239;BME280;56349;51.816;-0.026;2022-11-09T08:18:35;99725.32;;;22.39;42.41
69239;BME280;56349;51.816;-0.026;2022-11-09T08:21:01;99721.25;;;22.59;42.39
69239;BME280;56349;51.816;-0.026;2022-11-09T08:23:26;99718.12;;;22.38;42.23
69239;BME280;56349;51.816;-0.026;2022-11-09T08:28:19;99736.78;;;22.91;41.42
69239;BME280;56349;51.816;-0.026;2022-11-09T08:30:44;99737.98;;;23.16;41.15
69239;BME280;56349;51.816;-0.026;2022-11-09T08:33:09;99740.41;;;23.35;40.91
69239;BME280;56349;51.816;-0.026;2022-11-09T08:35:34;99749.84;;;23.56;40.69
69239;BME280;56349;51.816;-0.026;2022-11-09T08:38:02;99747.87;;;23.55;40.37
69239;BME280;56349;51.816;-0.026;2022-11-09T08:40:26;99750.28;;;23.87;39.95
69239;BME280;56349;51.816;-0.026;2022-11-09T08:42:52;99763.98;;;24.17;39.54
69239;BME280;56349;51.816;-0.026;2022-11-09T08:45:17;99770.41;;;24.03;39.13
69239;BME280;56349;51.816;-0.026;2022-11-09T08:47:42;99772.53;;;24.28;38.74
69239;BME280;56349;51.816;-0.026;2022-11-09T08:50:09;99771.81;;;24.53;38.39
69239;BME280;56349;51.816;-0.026;2022-11-09T08:52:34;99780.60;;;24.77;38.02
69239;BME280;56349;51.816;-0.026;2022-11-09T08:54:58;99781.20;;;24.97;37.68
69239;BME280;56349;51.816;-0.026;2022-11-09T08:57:25;99781.70;;;24.90;37.39
69239;BME280;56349;51.816;-0.026;2022-11-09T08:59:50;99787.37;;;25.06;37.11
69239;BME280;56349;51.816;-0.026;2022-11-09T09:02:16;99788.79;;;25.22;36.84
69239;BME280;56349;51.816;-0.026;2022-11-09T09:04:43;99790.90;;;25.15;36.57
69239;BME280;56349;51.816;-0.026;2022-11-09T09:07:08;99791.09;;;25.26;36.33
69239;BME280;56349;51.816;-0.026;2022-11-09T09:09:33;99800.76;;;25.40;36.08
69239;BME280;56349;51.816;-0.026;2022-11-09T09:11:59;99802.74;;;25.52;35.85
69239;BME280;56349;51.816;-0.026;2022-11-09T09:14:24;99818.86;;;25.40;35.63
69239;BME280;56349;51.816;-0.026;2022-11-09T09:16:50;99818.42;;;25.52;35.42
69239;BME280;56349;51.816;-0.026;2022-11-09T09:19:16;99821.41;;;25.85;35.22
69239;BME280;56349;51.816;-0.026;2022-11-09T09:21:41;99825.12;;;25.93;35.01
69239;BME280;56349;51.816;-0.026;2022-11-09T09:24:07;99828.30;;;25.77;34.89
69239;BME280;56349;51.816;-0.026;2022-11-09T09:26:34;99831.46;;;25.56;34.76
69239;BME280;56349;51.816;-0.026;2022-11-09T09:28:59;99833.38;;;25.89;34.64
69239;BME280;56349;51.816;-0.026;2022-11-09T09:31:26;99835.45;;;25.69;34.51
69239;BME280;56349;51.816;-0.026;2022-11-09T09:33:50;99839.37;;;25.77;34.37
69239;BME280;56349;51.816;-0.026;2022-11-09T09:36:17;99845.58;;;25.84;34.23
69239;BME280;56349;51.816;-0.026;2022-11-09T09:38:41;99848.13;;;25.95;34.04
69239;BME280;56349;51.816;-0.026;2022-11-09T09:41:14;99847.47;;;25.99;33.95
69239;BME280;56349;51.816;-0.026;2022-11-09T09:43:36;99859.50;;;26.01;33.88
69239;BME280;56349;51.816;-0.026;2022-11-09T09:46:00;99861.65;;;26.03;33.82
69239;BME280;56349;51.816;-0.026;2022-11-09T09:48:31;99867.11;;;26.11;33.77
69239;BME280;56349;51.816;-0.026;2022-11-09T09:50:51;99871.65;;;26.13;33.74
69239;BME280;56349;51.816;-0.026;2022-11-09T09:53:22;99873.87;;;26.19;33.69
69239;BME280;56349;51.816;-0.026;2022-11-09T09:55:43;99885.60;;;26.26;33.66
69239;BME280;56349;51.816;-0.026;2022-11-09T09:58:10;99883.69;;;26.61;33.62
69239;BME280;56349;51.816;-0.026;2022-11-09T10:00:32;99883.42;;;26.37;33.57
69239;BME280;56349;51.816;-0.026;2022-11-09T10:02:59;99889.31;;;26.39;33.55
69239;BME280;56349;51.816;-0.026;2022-11-09T10:05:30;99890.34;;;26.33;33.59
69239;BME280;56349;51.816;-0.026;2022-11-09T10:07:57;99891.08;;;26.32;33.58
69239;BME280;56349;51.816;-0.026;2022-11-09T10:10:28;99896.62;;;26.33;33.58
69239;BME280;56349;51.816;-0.026;2022-11-09T10:12:51;99901.79;;;26.85;33.54
69239;BME280;56349;51.816;-0.026;2022-11-09T10:15:13;99906.77;;;26.35;33.52
69239;BME280;56349;51.816;-0.026;2022-11-09T10:17:39;99908.02;;;26.32;33.54
69239;BME280;56349;51.816;-0.026;2022-11-09T10:20:08;99915.06;;;26.29;33.58
69239;BME280;56349;51.816;-0.026;2022-11-09T10:22:31;99915.71;;;26.27;33.55
69239;BME280;56349;51.816;-0.026;2022-11-09T10:24:54;99921.84;;;26.24;33.54
69239;BME280;56349;51.816;-0.026;2022-11-09T10:27:26;99919.68;;;26.22;33.48
69239;BME280;56349;51.816;-0.026;2022-11-09T10:29:45;99932.65;;;26.20;33.43
69239;BME280;56349;51.816;-0.026;2022-11-09T10:32:12;99927.37;;;26.66;33.37
69239;BME280;56349;51.816;-0.026;2022-11-09T10:34:36;99939.05;;;26.16;33.24
69239;BME280;56349;51.816;-0.026;2022-11-09T10:37:05;99942.21;;;26.15;33.22
69239;BME280;56349;51.816;-0.026;2022-11-09T10:39:37;99950.47;;;26.16;33.14
69239;BME280;56349;51.816;-0.026;2022-11-09T10:41:51;99952.64;;;26.15;32.94
69239;BME280;56349;51.816;-0.026;2022-11-09T10:44:17;99956.16;;;26.24;32.65
69239;BME280;56349;51.816;-0.026;2022-11-09T10:51:39;99963.07;;;26.17;32.50
69239;BME280;56349;51.816;-0.026;2022-11-09T10:56:23;99963.60;;;26.21;32.18
69239;BME280;56349;51.816;-0.026;2022-11-09T10:58:50;99969.53;;;26.19;32.05
69239;BME280;56349;51.816;-0.026;2022-11-09T11:01:16;99972.28;;;26.17;31.96
69239;BME280;56349;51.816;-0.026;2022-11-09T11:03:40;99973.35;;;26.10;31.86
69239;BME280;56349;51.816;-0.026;2022-11-09T11:06:11;99971.99;;;26.05;31.97
69239;BME280;56349;51.816;-0.026;2022-11-09T11:08:35;99975.99;;;25.99;31.98
69239;BME280;56349;51.816;-0.026;2022-11-09T11:11:05;99976.17;;;26.03;31.97
69239;BME280;56349;51.816;-0.026;2022-11-09T11:13:23;99980.31;;;26.00;32.00
69239;BME280;56349;51.816;-0.026;2022-11-09T11:15:49;99978.32;;;25.93;31.98
69239;BME280;56349;51.816;-0.026;2022-11-09T11:18:17;99982.49;;;25.89;32.08
69239;BME280;56349;51.816;-0.026;2022-11-09T11:20:40;99986.15;;;25.95;31.99
69239;BME280;56349;51.816;-0.026;2022-11-09T11:23:11;99985.91;;;26.20;31.93
69239;BME280;56349;51.816;-0.026;2022-11-09T11:25:32;99986.28;;;26.36;31.97
69239;BME280;56349;51.816;-0.026;2022-11-09T11:28:01;99995.37;;;26.33;31.94
69239;BME280;56349;51.816;-0.026;2022-11-09T11:30:25;100003.25;;;25.82;31.95
69239;BME280;56349;51.816;-0.026;2022-11-09T11:32:48;100007.08;;;26.14;31.94
69239;BME280;56349;51.816;-0.026;2022-11-09T11:35:14;100020.07;;;25.96;31.84
69239;BME280;56349;51.816;-0.026;2022-11-09T11:37:46;100015.45;;;26.07;31.57
69239;BME280;56349;51.816;-0.026;2022-11-09T11:40:07;100017.54;;;26.19;31.43
69239;BME280;56349;51.816;-0.026;2022-11-09T11:42:40;100023.21;;;26.17;31.46
69239;BME280;56349;51.816;-0.026;2022-11-09T11:45:05;100018.46;;;26.14;31.30
69239;BME280;56349;51.816;-0.026;2022-11-09T11:47:31;100023.87;;;26.11;31.12
69239;BME280;56349;51.816;-0.026;2022-11-09T11:49:59;100026.54;;;26.11;31.05
69239;BME280;56349;51.816;-0.026;2022-11-09T11:52:16;100026.76;;;26.14;30.95
69239;BME280;56349;51.816;-0.026;2022-11-09T11:54:50;100028.52;;;26.17;31.01
69239;BME280;56349;51.816;-0.026;2022-11-09T11:57:08;100037.45;;;26.15;30.97
69239;BME280;56349;51.816;-0.026;2022-11-09T11:59:47;100042.27;;;26.09;30.93
69239;BME280;56349;51.816;-0.026;2022-11-09T12:02:10;100048.72;;;26.02;30.98
69239;BME280;56349;51.816;-0.026;2022-11-09T12:04:33;100048.18;;;26.01;30.95
69239;BME280;56349;51.816;-0.026;2022-11-09T12:06:58;100046.13;;;26.31;30.78
69239;BME280;56349;51.816;-0.026;2022-11-09T12:09:25;100040.43;;;26.04;30.69
69239;BME280;56349;51.816;-0.026;2022-11-09T12:11:50;100039.46;;;26.02;30.63
69239;BME280;56349;51.816;-0.026;2022-11-09T12:14:15;100038.57;;;25.77;30.83
69239;BME280;56349;51.816;-0.026;2022-11-09T12:16:34;100040.74;;;25.94;30.70
69239;BME280;56349;51.816;-0.026;2022-11-09T12:21:45;100042.27;;;25.95;30.65
69239;BME280;56349;51.816;-0.026;2022-11-09T12:26:29;100046.34;;;26.07;30.58
69239;BME280;56349;51.816;-0.026;2022-11-09T12:28:52;100052.18;;;26.08;30.56
69239;BME280;56349;51.816;-0.026;2022-11-09T12:31:21;100052.50;;;26.06;30.52
69239;BME280;56349;51.816;-0.026;2022-11-09T12:33:38;100053.18;;;26.09;30.55
69239;BME280;56349;51.816;-0.026;2022-11-09T12:35:59;100057.59;;;26.10;30.42
69239;BME280;56349;51.816;-0.026;2022-11-09T12:38:26;100058.13;;;26.10;30.27
69239;BME280;56349;51.816;-0.026;2022-11-09T12:40:50;100050.60;;;26.07;30.29
69239;BME280;56349;51.816;-0.026;2022-11-09T12:43:15;100057.02;;;26.07;30.32
69239;BME280;56349;51.816;-0.026;2022-11-09T12:45:43;100062.81;;;26.07;30.30
69239;BME280;56349;51.816;-0.026;2022-11-09T12:48:08;100065.95;;;26.17;30.13
69239;BME280;56349;51.816;-0.026;2022-11-09T12:50:29;100071.59;;;26.16;30.14
69239;BME280;56349;51.816;-0.026;2022-11-09T12:52:55;100076.48;;;26.12;30.10
69239;BME280;56349;51.816;-0.026;2022-11-09T12:55:25;100079.16;;;25.95;30.20
69239;BME280;56349;51.816;-0.026;2022-11-09T12:57:47;100082.30;;;26.09;30.27
69239;BME280;56349;51.816;-0.026;2022-11-09T13:02:42;100087.60;;;26.15;30.41